Nearby METAR Reports

 

EBAW - Antwerp/Deurne, Belgium
Distance from station: ZZO 9km
Ververst: 19/07/2024 19:20
Helder
Helder
 Wind van ZO
Wind: ZO 11 km/h
Temperatuur: 28°C
Hitte-Index: 29°C
Dauwpunt: 18°C
Vochtigheid: 55%
Barometer: 1015 hPa
Overzicht: Helder
Visibility: greater than 10 km
2024/07/19 17:20 EBAW 191720Z 13006KT CAVOK 28/18 Q1015 NOSIG
EHWO - Woensdrecht Rnla, Netherlands
Distance from station: NNW 20km
Ververst: 19/07/2024 19:25
Helder
Helder
 Wind van ZO
Wind: ZO 6 km/h
Temperatuur: 28°C
Hitte-Index: 28°C
Dauwpunt: 15°C
Vochtigheid: 45%
Barometer: 1015 hPa
Clouds: Helder
Visibility: 10 km
2024/07/19 17:25 EHWO 191725Z AUTO 14003KT 9999 NCD 28/15 Q1015 BLU
 
EBBR - Brussels Nationa, Belgium
Distance from station: Z 43km
Ververst: 19/07/2024 19:20
Helder
Helder
 Wind van O
Wind: O 6 km/h
Temperatuur: 29°C
Hitte-Index: 29°C
Dauwpunt: 16°C
Vochtigheid: 45%
Barometer: 1016 hPa
Overzicht: Helder
Visibility: greater than 10 km
2024/07/19 17:20 EBBR 191720Z 10003KT 070V160 CAVOK 29/16 Q1016 NOSIG
EHGR - Gilze-Rijen Rnla, Netherlands
Distance from station: NO 47km
Ververst: 19/07/2024 19:25
Helder
Helder
 Wind van OZO
Wind: OZO 7 km/h
Temperatuur: 29°C
Hitte-Index: 29°C
Dauwpunt: 16°C
Vochtigheid: 45%
Barometer: 1015 hPa
Clouds: Helder
Visibility: 10 km
2024/07/19 17:25 EHGR 191725Z AUTO 12004KT 100V180 9999 NCD 29/16 Q1015 BLU
 
EBDT - Schaffen, Belgium
Distance from station: OZO 54km
Ververst: 19/07/2024 19:25
Few Clouds
Few Clouds
 Wind van ZZO
Wind: ZZO 9 km/h
Temperatuur: 29°C
Hitte-Index: 29°C
Dauwpunt: 15°C
Vochtigheid: 43%
Barometer: 1015 hPa
Clouds: Few Clouds
Visibility: 10 km
Cloud details: Few Clouds 5182 m
2024/07/19 17:25 EBDT 191725Z AUTO 15005KT 9999 FEW170/// 29/15 Q1015 BLU
EHFS - Vlissingen, Netherlands
Distance from station: WNW 60km
Ververst: 19/07/2024 19:25
Gedeeltelijk bewolkt
Gedeeltelijk bewolkt
 Wind van ZO
Wind: ZO 11 km/h
Temperatuur: 26°C
Dauwpunt: 18°C
Vochtigheid: 61%
Barometer: 1015 hPa
Clouds: Gedeeltelijk bewolkt
Visibility: 10 km
2024/07/19 17:25 EHFS 191725Z AUTO 13006KT 110V170 9999 NSC 26/18 Q1015
 
EBBE - Beauvechain (baf, Belgium
Distance from station: ZZO 64km
Ververst: 19/07/2024 19:25
Meestal bewolkt
Meestal bewolkt
 Wind van O
Wind: O 9 km/h
Temperatuur: 27°C
Hitte-Index: 28°C
Dauwpunt: 16°C
Vochtigheid: 51%
Barometer: 1016 hPa
Clouds: Meestal bewolkt
Visibility: 10 km
Cloud details: Meestal bewolkt 4877 m
2024/07/19 17:25 EBBE 191725Z AUTO 08005KT 9999 BKN160/// 27/16 Q1016 BLU
EHEH - Eindhoven Rnlafb, Netherlands
Distance from station: ONO 69km
Ververst: 19/07/2024 19:25
Zwaar bewolkt
Zwaar bewolkt
 Wind van Z
Wind: Z 11 km/h
Temperatuur: 28°C
Hitte-Index: 28°C
Dauwpunt: 14°C
Vochtigheid: 42%
Barometer: 1015 hPa
Clouds: Zwaar bewolkt
Visibility: 10 km
Cloud details: Zwaar bewolkt 6096 m
2024/07/19 17:25 EHEH 191725Z AUTO 17006KT 110V200 9999 OVC200 28/14 Q1015 BLU NOSIG RMK TREND REMOTE BY EHWX
 
EBBL - Kleine-Brogel(Ba, Belgium
Distance from station: O 74km
Ververst: 19/07/2024 19:25
Meestal bewolkt
Meestal bewolkt
 Wind van O
Wind: O 7 km/h
Temperatuur: 28°C
Hitte-Index: 28°C
Dauwpunt: 14°C
Vochtigheid: 42%
Barometer: 1016 hPa
Clouds: Meestal bewolkt
Visibility: 10 km
Cloud details: Meestal bewolkt 5182 m
2024/07/19 17:25 EBBL 191725Z AUTO 10004KT 9999 BKN170/// 28/14 Q1016 BLU
EHRD - Rotterdam Airpor, Netherlands
Distance from station: N 75km
Ververst: 19/07/2024 19:25
Helder
Helder
 Wind van OZO
Wind: OZO 11 km/h
Temperatuur: 28°C
Hitte-Index: 28°C
Dauwpunt: 17°C
Vochtigheid: 51%
Barometer: 1015 hPa
Clouds: Helder
Visibility: 10 km
2024/07/19 17:25 EHRD 191725Z AUTO 11006KT 060V160 9999 NCD 28/17 Q1015 NOSIG
 
EHSC - Goeree Le Sea, Netherlands
Distance from station: NW 89km
Ververst: 19/07/2024 19:25

 Wind van O
Wind: O 15 km/h
Temperatuur: 27°C
Hitte-Index: 28°C
Dauwpunt: 16°C
Vochtigheid: 51%
Barometer: 1015 hPa
Visibility: 10 km
2024/07/19 17:25 EHSC 191725Z AUTO 08008KT 9999 ///////// 27/16 Q1015 W18/H3
EBCI - Charleroi/Gossel, Belgium
Distance from station: Z 90km
Ververst: 19/07/2024 19:20
Helder
Helder
 Wind van OZO
Wind: OZO 6 km/h
Temperatuur: 28°C
Hitte-Index: 28°C
Dauwpunt: 15°C
Vochtigheid: 45%
Barometer: 1016 hPa
Overzicht: Helder
Visibility: greater than 10 km
2024/07/19 17:20 EBCI 191720Z 12003KT 020V190 CAVOK 28/15 Q1016 NOSIG
 
EBCV - Chievres Ab, Belgium
Distance from station: ZZW 90km
Ververst: 19/07/2024 19:25
Meestal bewolkt
Meestal bewolkt
 Wind van ZO
Wind: ZO 6 km/h
Temperatuur: 28°C
Hitte-Index: 28°C
Dauwpunt: 17°C
Vochtigheid: 51%
Barometer: 1015 hPa
Clouds: Meestal bewolkt
Visibility: 10 km
Cloud details: Few Clouds 3353 m
Meestal bewolkt 4267 m
2024/07/19 17:25 EBCV 191725Z AUTO 14003KT 9999 FEW110/// BKN140/// 28/17 Q1015 BLU
EHVK - Volkel Rnlafb, Netherlands
Distance from station: ONO 97km
Ververst: 19/07/2024 19:25
Zwaar bewolkt
Zwaar bewolkt
 Wind van O
Wind: O 9 km/h
Temperatuur: 28°C
Hitte-Index: 28°C
Dauwpunt: 16°C
Vochtigheid: 48%
Barometer: 1016 hPa
Clouds: Zwaar bewolkt
Visibility: 10 km
Cloud details: Zwaar bewolkt 5791 m
2024/07/19 17:25 EHVK 191725Z AUTO 10005KT 080V140 9999 OVC190 28/16 Q1016 BLU
 
EBLG - Bierset/Liege (c, Belgium
Distance from station: ZO 102km
Ververst: 19/07/2024 19:20
Helder
Helder
 Wind van NO
Wind: NO 13 km/h
Temperatuur: 27°C
Hitte-Index: 28°C
Dauwpunt: 16°C
Vochtigheid: 51%
Barometer: 1016 hPa
Overzicht: Helder
Visibility: greater than 10 km
2024/07/19 17:20 EBLG 191720Z 04007KT CAVOK 27/16 Q1016 NOSIG
EHBK - Zuid-Limburg/Bee, Netherlands
Distance from station: OZO 102km
Ververst: 19/07/2024 19:25
Gedeeltelijk bewolkt
Gedeeltelijk bewolkt
 Wind van ONO
Wind: ONO 13 km/h
Temperatuur: 26°C
Dauwpunt: 16°C
Vochtigheid: 54%
Barometer: 1016 hPa
Clouds: Gedeeltelijk bewolkt
Visibility: 10 km
2024/07/19 17:25 EHBK 191725Z AUTO 07007KT 9999 NSC 26/16 Q1016 NOSIG
 
EBOS - Oostende Airport, Belgium
Distance from station: W 108km
Ververst: 19/07/2024 19:20
Helder
Helder
 Wind van NO
Wind: NO 13 km/h
Temperatuur: 27°C
Hitte-Index: 28°C
Dauwpunt: 17°C
Vochtigheid: 54%
Barometer: 1015 hPa
Overzicht: Helder
Visibility: greater than 10 km
2024/07/19 17:20 EBOS 191720Z 05007KT CAVOK 27/17 Q1015 NOSIG
EHSA - Euro Platform, Netherlands
Distance from station: NW 112km
Ververst: 19/07/2024 19:25

 Wind van ONO
Wind: ONO 17 km/h
Temperatuur: 23°C
Dauwpunt: 18°C
Vochtigheid: 74%
Barometer: 1015 hPa
Visibility: 10 km
2024/07/19 17:25 EHSA 191725Z AUTO 06009KT 9999 ///////// 23/18 Q1015 W17/H2
 
EHAM - Amsterdam/Schiph, Netherlands
Distance from station: NNO 118km
Ververst: 19/07/2024 19:25
Helder
Helder
 Wind van OZO
Wind: OZO 15 km/h
Temperatuur: 27°C
Hitte-Index: 28°C
Dauwpunt: 17°C
Vochtigheid: 54%
Barometer: 1015 hPa
Overzicht: Helder
Visibility: greater than 10 km
2024/07/19 17:25 EHAM 191725Z 12008KT CAVOK 27/17 Q1015 NOSIG
ETNG - Geilenkirchen(Na, Germany
Distance from station: OZO 118km
Ververst: 19/07/2024 18:50
Zwaar bewolkt
Zwaar bewolkt
 Wind van ONO
Wind: ONO 9 km/h
Temperatuur: 27°C
Hitte-Index: 27°C
Dauwpunt: 15°C
Vochtigheid: 48%
Barometer: 1016 hPa
Clouds: Zwaar bewolkt
Visibility: 10 km
Cloud details: Meestal bewolkt 5486 m
Zwaar bewolkt 7315 m
2024/07/19 16:50 ETNG 191650Z AUTO 06005KT 9999 // BKN180/// OVC240/// 27/15 Q1016